createdAt,value
2023-04-15T00:00:57.991Z,6.66
2023-04-15T00:01:58.064Z,6.66
2023-04-15T00:02:58.160Z,6.64
2023-04-15T00:03:58.098Z,6.67
2023-04-15T00:04:58.021Z,6.70
2023-04-15T00:05:58.032Z,6.68
2023-04-15T00:06:58.030Z,6.66
2023-04-15T00:07:58.060Z,6.62
2023-04-15T00:08:58.150Z,6.60
2023-04-15T00:09:58.062Z,6.60
2023-04-15T00:10:58.064Z,6.60
2023-04-15T00:11:58.078Z,6.58
2023-04-15T00:12:58.076Z,6.57
2023-04-15T00:13:58.081Z,6.55
2023-04-15T00:14:58.098Z,6.55
2023-04-15T00:15:58.105Z,6.56
2023-04-15T00:16:58.298Z,6.58
2023-04-15T00:17:58.137Z,6.52
2023-04-15T00:18:58.376Z,6.52
2023-04-15T00:19:58.307Z,6.52
2023-04-15T00:37:58.622Z,6.56
2023-04-15T00:38:58.353Z,6.54
2023-04-15T00:39:58.288Z,6.52
2023-04-15T00:40:58.296Z,6.47
2023-04-15T00:41:58.305Z,6.45
2023-04-15T00:42:58.312Z,6.46
2023-04-15T00:43:58.320Z,6.46
2023-04-15T00:44:58.337Z,6.48
2023-04-15T00:45:58.398Z,6.51
2023-04-15T00:46:58.341Z,6.54
2023-04-15T00:47:58.373Z,6.58
2023-04-15T00:48:58.486Z,6.59
2023-04-15T00:49:58.372Z,6.57
2023-04-15T00:50:58.376Z,6.53
2023-04-15T00:51:58.387Z,6.51
2023-04-15T00:52:58.397Z,6.48
2023-04-15T00:53:58.400Z,6.50
2023-04-15T00:54:58.415Z,6.52
2023-04-15T00:55:58.430Z,6.53
2023-04-15T00:56:58.416Z,6.52
2023-04-15T00:57:58.447Z,6.52
2023-04-15T00:58:58.672Z,6.50
2023-04-15T00:59:58.456Z,6.48
2023-04-15T01:00:58.462Z,6.48
2023-04-15T01:01:58.595Z,6.49
2023-04-15T01:02:58.544Z,6.53
2023-04-15T01:03:58.722Z,6.50
2023-04-15T01:04:58.507Z,6.53
2023-04-15T01:05:58.656Z,6.54
2023-04-15T01:06:58.507Z,6.54
2023-04-15T01:07:58.518Z,6.54
2023-04-15T01:08:58.763Z,6.54
2023-04-15T01:09:58.642Z,6.54
2023-04-15T01:10:58.554Z,6.55
2023-04-15T01:11:58.556Z,6.56
2023-04-15T01:12:58.560Z,6.57
2023-04-15T01:13:58.567Z,6.57
2023-04-15T01:14:58.575Z,6.57
2023-04-15T01:15:58.649Z,6.59
2023-04-15T01:16:58.604Z,6.63
2023-04-15T01:17:58.625Z,6.62
2023-04-15T01:18:58.874Z,6.61
2023-04-15T01:19:58.625Z,6.59
2023-04-15T01:20:58.628Z,6.61
2023-04-15T01:21:58.637Z,6.58
2023-04-15T01:22:58.645Z,6.60
2023-04-15T01:23:58.672Z,6.59
2023-04-15T01:24:58.662Z,6.59
2023-04-15T01:25:58.674Z,6.59
2023-04-15T01:26:58.675Z,6.58
2023-04-15T01:27:58.685Z,6.56
2023-04-15T01:28:58.836Z,6.53
2023-04-15T01:29:58.698Z,6.50
2023-04-15T01:30:58.708Z,6.49
2023-04-15T01:31:58.741Z,6.49
2023-04-15T01:32:58.748Z,6.50
2023-04-15T01:33:58.738Z,6.50
2023-04-15T01:34:58.747Z,6.51
2023-04-15T01:35:58.749Z,6.48
2023-04-15T01:36:58.756Z,6.49
2023-04-15T01:37:58.761Z,6.51
2023-04-15T01:38:58.918Z,6.53
2023-04-15T01:39:58.775Z,6.56
2023-04-15T01:40:58.810Z,6.58
2023-04-15T01:41:58.809Z,6.61
2023-04-15T01:42:58.799Z,6.61
2023-04-15T01:43:58.809Z,6.62
2023-04-15T01:44:58.815Z,6.62
2023-04-15T01:45:58.825Z,6.61
2023-04-15T01:46:58.852Z,6.61
2023-04-15T01:47:58.918Z,6.62
2023-04-15T01:48:59.009Z,6.63
2023-04-15T01:49:58.856Z,6.64
2023-04-15T01:50:58.873Z,6.66
2023-04-15T01:51:58.886Z,6.68
2023-04-15T01:52:58.897Z,6.69
2023-04-15T01:53:58.923Z,6.70
2023-04-15T01:54:58.918Z,6.67
2023-04-15T01:55:58.914Z,6.64
2023-04-15T01:56:58.925Z,6.62
2023-04-15T01:57:58.939Z,6.62
2023-04-15T01:58:59.055Z,6.60
2023-04-15T01:59:58.946Z,6.60
2023-04-15T02:00:59.032Z,6.62
2023-04-15T02:01:59.035Z,6.62
2023-04-15T02:02:59.016Z,6.65
2023-04-15T02:03:58.989Z,6.64
2023-04-15T02:04:58.991Z,6.65
2023-04-15T02:05:59.000Z,6.64
2023-04-15T02:06:59.011Z,6.65
2023-04-15T02:07:59.022Z,6.63
2023-04-15T02:08:59.267Z,6.68
2023-04-15T02:09:59.036Z,6.70
2023-04-15T02:10:59.039Z,6.73
2023-04-15T02:11:59.049Z,6.72
2023-04-15T02:12:59.061Z,6.72
2023-04-15T02:13:59.073Z,6.72
2023-04-15T02:14:59.083Z,6.74
2023-04-15T02:15:59.092Z,6.77
2023-04-15T02:16:59.110Z,6.76
2023-04-15T02:17:59.136Z,6.75
2023-04-15T02:18:59.190Z,6.75
2023-04-15T02:19:59.134Z,6.77
2023-04-15T02:20:59.160Z,6.78
2023-04-15T02:21:59.147Z,6.81
2023-04-15T02:22:59.157Z,6.79
2023-04-15T02:23:59.167Z,6.77
2023-04-15T02:24:59.171Z,6.76
2023-04-15T02:25:59.177Z,6.77
2023-04-15T02:26:59.196Z,6.74
2023-04-15T02:27:59.192Z,6.75
2023-04-15T02:28:59.408Z,6.73
2023-04-15T02:29:59.209Z,6.74
2023-04-15T02:30:59.225Z,6.77
2023-04-15T02:31:59.274Z,6.77
2023-04-15T02:32:59.243Z,6.79
2023-04-15T02:33:59.240Z,6.78
2023-04-15T02:34:59.241Z,6.77
2023-04-15T02:35:59.252Z,6.76
2023-04-15T02:36:59.261Z,6.77
2023-04-15T02:37:59.292Z,6.77
2023-04-15T02:38:59.446Z,6.77
2023-04-15T02:39:59.276Z,6.77
2023-04-15T02:40:59.290Z,6.75
2023-04-15T02:41:59.292Z,6.74
2023-04-15T02:42:59.302Z,6.74
2023-04-15T02:43:59.310Z,6.73
2023-04-15T02:44:59.316Z,6.72
2023-04-15T02:45:59.340Z,6.72
2023-04-15T02:46:59.330Z,6.72
2023-04-15T02:47:59.421Z,6.70
2023-04-15T02:48:59.602Z,6.70
2023-04-15T02:49:59.350Z,6.69
2023-04-15T02:50:59.369Z,6.70
2023-04-15T02:51:59.369Z,6.71
2023-04-15T02:52:59.387Z,6.74
2023-04-15T02:53:59.383Z,6.77
2023-04-15T02:54:59.391Z,6.80
2023-04-15T02:55:59.399Z,6.81
2023-04-15T02:56:59.409Z,6.83
2023-04-15T02:57:59.417Z,6.84
2023-04-15T02:58:59.530Z,6.86
2023-04-15T02:59:59.438Z,6.87
2023-04-15T03:00:59.458Z,6.90
2023-04-15T03:01:59.458Z,6.89
2023-04-15T03:02:59.551Z,6.90
2023-04-15T03:03:59.509Z,6.91
2023-04-15T03:04:59.482Z,6.91
2023-04-15T03:05:59.493Z,6.90
2023-04-15T03:06:59.504Z,6.88
2023-04-15T03:07:59.516Z,6.89
2023-04-15T03:08:59.650Z,6.86
2023-04-15T03:09:59.528Z,6.86
2023-04-15T03:10:59.549Z,6.86
2023-04-15T03:11:59.557Z,6.85
2023-04-15T03:12:59.556Z,6.83
2023-04-15T03:13:59.569Z,6.84
2023-04-15T03:14:59.578Z,6.82
2023-04-15T03:15:59.607Z,6.81
2023-04-15T03:16:59.600Z,6.78
2023-04-15T03:17:59.611Z,6.76
2023-04-15T03:18:59.830Z,6.77
2023-04-15T03:19:59.641Z,6.79
2023-04-15T03:20:59.630Z,6.80
2023-04-15T03:21:59.647Z,6.78
2023-04-15T03:22:59.644Z,6.76
2023-04-15T03:23:59.655Z,6.78
2023-04-15T03:24:59.659Z,6.81
2023-04-15T03:25:59.672Z,6.84
2023-04-15T03:26:59.680Z,6.82
2023-04-15T03:27:59.687Z,6.81
2023-04-15T03:28:59.901Z,6.80
2023-04-15T03:29:59.704Z,6.80
2023-04-15T03:30:59.744Z,6.81
2023-04-15T03:31:59.728Z,6.83
2023-04-15T03:32:59.791Z,6.84
2023-04-15T03:33:59.744Z,6.84
2023-04-15T03:34:59.748Z,6.86
2023-04-15T03:35:59.760Z,6.83
2023-04-15T03:36:59.765Z,6.81
2023-04-15T03:37:59.776Z,6.82
2023-04-15T03:38:59.985Z,6.84
2023-04-15T03:39:59.792Z,6.87
2023-04-15T03:40:59.810Z,6.88
2023-04-15T03:41:59.813Z,6.87
2023-04-15T03:42:59.820Z,6.88
2023-04-15T03:43:59.835Z,6.88
2023-04-15T03:44:59.836Z,6.90
2023-04-15T03:46:01.792Z,6.90
2023-04-15T03:46:59.857Z,6.93
2023-04-15T03:48:11.338Z,6.93
2023-04-15T03:48:59.960Z,6.96
2023-04-15T03:49:59.887Z,6.97
2023-04-15T03:50:59.900Z,6.96
2023-04-15T03:51:59.912Z,6.95
2023-04-15T03:52:59.916Z,6.94
2023-04-15T03:53:59.931Z,6.93
2023-04-15T03:54:59.936Z,6.93
2023-04-15T03:55:59.943Z,6.93
2023-04-15T03:56:59.952Z,6.92
2023-04-15T03:57:59.969Z,6.93
2023-04-15T03:59:00.142Z,6.96
2023-04-15T03:59:59.980Z,6.95
2023-04-15T04:00:59.989Z,6.93
2023-04-15T04:02:00.085Z,6.92
2023-04-15T04:03:00.157Z,6.95
2023-04-15T04:04:00.081Z,6.96
2023-04-15T04:05:00.015Z,6.97
2023-04-15T04:06:00.034Z,6.98
2023-04-15T04:07:00.029Z,6.96
2023-04-15T04:08:00.041Z,6.93
2023-04-15T04:09:00.197Z,6.93
2023-04-15T04:10:00.065Z,6.94
2023-04-15T04:11:00.072Z,6.95
2023-04-15T04:12:00.117Z,6.99
2023-04-15T04:13:00.120Z,7.03
2023-04-15T04:14:00.114Z,7.00
2023-04-15T04:15:00.116Z,7.00
2023-04-15T04:16:00.255Z,6.96
2023-04-15T04:17:00.198Z,6.94
2023-04-15T04:18:00.188Z,6.96
2023-04-15T04:19:00.379Z,6.97
2023-04-15T04:20:00.197Z,7.01
2023-04-15T04:21:00.178Z,7.06
2023-04-15T04:22:00.179Z,7.05
2023-04-15T04:23:00.194Z,7.04
2023-04-15T04:24:00.209Z,7.02
2023-04-15T04:25:00.213Z,6.98
2023-04-15T04:26:00.233Z,6.99
2023-04-15T04:27:00.233Z,6.98
2023-04-15T04:28:00.248Z,7.00
2023-04-15T04:29:00.449Z,7.01
2023-04-15T04:30:00.269Z,7.03
2023-04-15T04:31:00.278Z,7.03
2023-04-15T04:32:00.345Z,7.00
2023-04-15T04:33:00.376Z,6.99
2023-04-15T04:34:00.323Z,6.98
2023-04-15T04:35:00.329Z,7.00
2023-04-15T04:36:00.343Z,6.98
2023-04-15T04:37:00.352Z,6.98
2023-04-15T04:38:00.360Z,6.98
2023-04-15T04:39:00.526Z,7.00
2023-04-15T04:40:00.390Z,7.00
2023-04-15T04:41:00.385Z,7.01
2023-04-15T04:42:00.397Z,7.02
2023-04-15T04:43:00.418Z,7.03
2023-04-15T04:44:00.417Z,7.03
2023-04-15T04:45:00.460Z,7.06
2023-04-15T04:46:00.472Z,7.04
2023-04-15T04:47:00.448Z,7.04
2023-04-15T04:48:00.522Z,7.00
2023-04-15T04:49:00.579Z,7.02
2023-04-15T04:50:00.479Z,6.98
2023-04-15T04:51:00.486Z,6.97
2023-04-15T04:52:00.500Z,6.97
2023-04-15T04:53:00.511Z,7.00
2023-04-15T04:54:01.778Z,7.03
2023-04-15T04:55:00.553Z,7.05
2023-04-15T04:56:00.534Z,7.06
2023-04-15T04:57:00.547Z,7.07
2023-04-15T04:58:00.560Z,7.08
2023-04-15T04:59:00.724Z,7.07
2023-04-15T05:00:00.574Z,7.06
2023-04-15T05:01:00.605Z,7.06
2023-04-15T05:02:00.679Z,7.07
2023-04-15T05:03:00.784Z,7.10
2023-04-15T05:04:00.809Z,7.11
2023-04-15T05:05:00.638Z,7.12
2023-04-15T05:06:00.633Z,7.15
2023-04-15T05:07:00.640Z,7.16
2023-04-15T05:08:00.648Z,7.17
2023-04-15T05:09:00.890Z,7.17
2023-04-15T05:10:00.688Z,7.16
2023-04-15T05:11:00.690Z,7.15
2023-04-15T05:12:00.688Z,7.14
2023-04-15T05:13:00.692Z,7.11
2023-04-15T05:14:00.709Z,7.11
2023-04-15T05:15:00.722Z,7.10
2023-04-15T05:16:00.779Z,7.14
2023-04-15T05:17:00.754Z,7.16
2023-04-15T05:18:00.845Z,7.18
2023-04-15T05:19:00.951Z,7.19
2023-04-15T05:20:00.769Z,7.19
2023-04-15T05:21:00.781Z,7.17
2023-04-15T05:22:00.799Z,7.16
2023-04-15T05:23:00.803Z,7.14
2023-04-15T05:24:00.812Z,7.14
2023-04-15T05:25:00.824Z,7.18
2023-04-15T05:26:00.831Z,7.17
2023-04-15T05:27:00.839Z,7.16
2023-04-15T05:28:00.850Z,7.19
2023-04-15T05:29:01.088Z,7.21
2023-04-15T05:30:00.868Z,7.20
2023-04-15T05:31:00.894Z,7.23
2023-04-15T05:32:00.881Z,7.25
2023-04-15T05:33:00.926Z,7.23
2023-04-15T05:34:00.897Z,7.23
2023-04-15T05:35:00.912Z,7.23
2023-04-15T05:36:00.918Z,7.22
2023-04-15T05:37:00.927Z,7.21
2023-04-15T05:38:00.933Z,7.22
2023-04-15T05:39:01.108Z,7.22
2023-04-15T05:40:00.949Z,7.22
2023-04-15T05:41:00.961Z,7.23
2023-04-15T05:42:00.967Z,7.21
2023-04-15T05:43:00.974Z,7.21
2023-04-15T05:44:00.988Z,7.23
2023-04-15T05:45:00.993Z,7.21
2023-04-15T05:46:01.066Z,7.24
2023-04-15T05:47:01.009Z,7.25
2023-04-15T05:48:01.039Z,7.24
2023-04-15T05:49:01.163Z,7.26
2023-04-15T05:50:01.042Z,7.30
2023-04-15T05:51:01.046Z,7.33
2023-04-15T05:52:01.056Z,7.33
2023-04-15T05:53:01.079Z,7.34
2023-04-15T05:54:01.084Z,7.30
2023-04-15T05:55:01.097Z,7.28
2023-04-15T05:56:01.101Z,7.25
2023-04-15T05:57:01.101Z,7.21
2023-04-15T05:58:01.111Z,7.22
2023-04-15T05:59:01.238Z,7.20
2023-04-15T06:00:01.131Z,7.16
2023-04-15T06:01:01.143Z,7.17
2023-04-15T06:02:01.169Z,7.18
2023-04-15T06:03:01.256Z,7.17
2023-04-15T06:04:01.240Z,7.20
2023-04-15T06:05:01.366Z,7.22
2023-04-15T06:06:01.187Z,7.24
2023-04-15T06:07:01.198Z,7.28
2023-04-15T06:08:01.210Z,7.32
2023-04-15T06:09:01.444Z,7.38
2023-04-15T06:10:01.240Z,7.38
2023-04-15T06:11:01.231Z,7.43
2023-04-15T06:12:01.240Z,7.42
2023-04-15T06:13:01.250Z,7.42
2023-04-15T06:14:01.284Z,7.42
2023-04-15T06:15:01.271Z,7.41
2023-04-15T06:16:01.300Z,7.41
2023-04-15T06:17:01.289Z,7.44
2023-04-15T06:18:01.359Z,7.45
2023-04-15T06:19:01.456Z,7.49
2023-04-15T06:20:01.345Z,7.53
2023-04-15T06:21:01.332Z,7.57
2023-04-15T06:22:01.341Z,7.59
2023-04-15T06:23:01.342Z,7.61
2023-04-15T06:24:01.373Z,7.63
2023-04-15T06:25:01.367Z,7.69
2023-04-15T06:26:01.377Z,7.68
2023-04-15T06:27:01.386Z,7.70
2023-04-15T06:28:01.439Z,7.70
2023-04-15T06:29:01.655Z,7.67
2023-04-15T06:30:01.423Z,7.65
2023-04-15T06:31:01.479Z,7.63
2023-04-15T06:32:01.438Z,7.62
2023-04-15T06:33:01.475Z,7.66
2023-04-15T06:34:01.461Z,7.69
2023-04-15T06:35:01.470Z,7.70
2023-04-15T06:36:01.507Z,7.70
2023-04-15T06:37:01.488Z,7.70
2023-04-15T06:38:01.496Z,7.70
2023-04-15T06:39:01.657Z,7.71
2023-04-15T06:40:01.597Z,7.71
2023-04-15T06:41:01.560Z,7.71
2023-04-15T06:42:01.546Z,7.73
2023-04-15T06:43:01.541Z,7.76
2023-04-15T06:44:01.582Z,7.79
2023-04-15T06:45:01.565Z,7.82
2023-04-15T06:46:01.614Z,7.82
2023-04-15T06:47:01.593Z,7.82
2023-04-15T06:48:01.600Z,7.83
2023-04-15T06:49:01.812Z,7.83
2023-04-15T06:50:01.630Z,7.87
2023-04-15T06:51:01.655Z,7.88
2023-04-15T06:52:01.648Z,7.88
2023-04-15T06:53:01.682Z,7.89
2023-04-15T06:54:01.662Z,7.91
2023-04-15T06:55:01.719Z,7.90
2023-04-15T06:56:01.676Z,7.85
2023-04-15T06:57:01.686Z,7.84
2023-04-15T06:58:01.696Z,7.82
2023-04-15T06:59:01.988Z,7.81
2023-04-15T07:00:01.732Z,7.81
2023-04-15T07:01:01.841Z,7.82
2023-04-15T07:02:01.762Z,7.79
2023-04-15T07:03:01.766Z,7.77
2023-04-15T07:04:01.803Z,7.72
2023-04-15T07:05:01.761Z,7.67
2023-04-15T07:06:01.777Z,7.66
2023-04-15T07:07:01.799Z,7.66
2023-04-15T07:08:01.824Z,7.69
2023-04-15T07:09:02.008Z,7.69
2023-04-15T07:10:01.826Z,7.70
2023-04-15T07:11:01.836Z,7.71
2023-04-15T07:12:01.859Z,7.73
2023-04-15T07:13:01.864Z,7.74
2023-04-15T07:14:01.870Z,7.72
2023-04-15T07:15:01.977Z,7.70
2023-04-15T07:16:01.886Z,7.72
2023-04-15T07:17:01.912Z,7.72
2023-04-15T07:18:01.932Z,7.70
2023-04-15T07:19:02.070Z,7.73
2023-04-15T07:20:01.921Z,7.73
2023-04-15T07:21:01.919Z,7.75
2023-04-15T07:22:01.930Z,7.76
2023-04-15T07:23:01.960Z,7.77
2023-04-15T07:24:01.954Z,7.75
2023-04-15T07:25:01.969Z,7.80
2023-04-15T07:26:01.973Z,7.81
2023-04-15T07:27:01.989Z,7.82
2023-04-15T07:28:02.005Z,7.82
2023-04-15T07:29:02.155Z,7.73
2023-04-15T07:30:02.019Z,7.74
2023-04-15T07:31:02.051Z,7.76
2023-04-15T07:32:02.048Z,7.80
2023-04-15T07:33:02.151Z,7.85
2023-04-15T07:34:02.072Z,7.86
2023-04-15T07:35:02.076Z,7.92
2023-04-15T07:36:02.094Z,7.97
2023-04-15T07:37:02.109Z,7.98
2023-04-15T07:38:02.126Z,8.01
2023-04-15T07:39:02.306Z,8.03
2023-04-15T07:40:02.145Z,8.09
2023-04-15T07:41:02.154Z,8.12
2023-04-15T07:42:02.245Z,8.15
2023-04-15T07:43:02.198Z,8.23
2023-04-15T07:44:02.185Z,8.28
2023-04-15T07:45:02.209Z,8.30
2023-04-15T07:46:02.236Z,8.33
2023-04-15T07:47:02.258Z,8.32
2023-04-15T07:48:02.270Z,8.33
2023-04-15T07:49:02.497Z,8.35
2023-04-15T07:50:02.264Z,8.37
2023-04-15T07:51:02.265Z,8.35
2023-04-15T07:52:02.283Z,8.35
2023-04-15T07:53:02.287Z,8.33
2023-04-15T07:54:02.296Z,8.32
2023-04-15T07:55:02.310Z,8.33
2023-04-15T07:56:02.334Z,8.34
2023-04-15T07:57:02.326Z,8.34
2023-04-15T07:58:02.358Z,8.31
2023-04-15T07:59:02.766Z,8.32
2023-04-15T08:00:02.363Z,8.30
2023-04-15T08:01:02.376Z,8.37
2023-04-15T08:02:02.400Z,8.44
2023-04-15T08:03:02.546Z,8.52
2023-04-15T08:05:02.469Z,8.66
2023-04-15T08:06:02.430Z,8.73
2023-04-15T08:07:02.429Z,8.80
2023-04-15T08:08:02.436Z,8.88
2023-04-15T08:09:02.567Z,8.94
2023-04-15T08:10:02.456Z,8.95
2023-04-15T08:11:02.470Z,8.99
2023-04-15T08:12:02.478Z,9.03
2023-04-15T08:13:02.519Z,9.09
2023-04-15T08:14:02.502Z,9.15
2023-04-15T08:15:02.504Z,9.16
2023-04-15T08:16:02.535Z,9.13
2023-04-15T08:17:02.539Z,9.07
2023-04-15T08:18:02.534Z,9.02
2023-04-15T08:19:02.710Z,9.01
2023-04-15T08:20:02.570Z,8.96
2023-04-15T08:21:02.578Z,8.89
2023-04-15T08:22:02.586Z,8.86
2023-04-15T08:23:02.602Z,8.87
2023-04-15T08:24:02.605Z,8.93
2023-04-15T08:25:02.632Z,8.99
2023-04-15T08:26:02.632Z,9.02
2023-04-15T08:27:02.640Z,9.05
2023-04-15T08:28:02.650Z,9.07
2023-04-15T08:29:02.886Z,9.07
2023-04-15T08:30:04.779Z,9.01
2023-04-15T08:31:02.689Z,8.95
2023-04-15T08:32:02.714Z,8.85
2023-04-15T08:33:02.788Z,8.79
2023-04-15T08:34:02.726Z,8.72
2023-04-15T08:35:02.737Z,8.70
2023-04-15T08:36:02.742Z,8.66
2023-04-15T08:37:02.746Z,8.62
2023-04-15T08:38:02.761Z,8.64
2023-04-15T08:39:03.034Z,8.66
2023-04-15T08:40:02.777Z,8.63
2023-04-15T08:41:02.783Z,8.67
2023-04-15T08:42:02.803Z,8.72
2023-04-15T08:43:02.814Z,8.74
2023-04-15T08:44:02.825Z,8.79
2023-04-15T08:45:02.833Z,8.84
2023-04-15T08:46:02.842Z,8.93
2023-04-15T08:47:03.041Z,9.03
2023-04-15T08:48:02.883Z,9.11
2023-04-15T08:49:02.990Z,9.16
2023-04-15T08:50:02.888Z,9.16
2023-04-15T08:51:02.900Z,9.17
2023-04-15T08:52:02.906Z,9.20
2023-04-15T08:53:02.925Z,9.31
2023-04-15T08:54:02.932Z,9.37
2023-04-15T08:55:02.939Z,9.39
2023-04-15T08:56:02.947Z,9.47
2023-04-15T08:57:02.959Z,9.59
2023-04-15T08:58:02.972Z,9.65
2023-04-15T08:59:03.132Z,9.79
2023-04-15T09:00:03.886Z,9.89
2023-04-15T09:01:03.049Z,9.94
2023-04-15T09:02:03.056Z,10.01
2023-04-15T09:03:03.071Z,10.08
2023-04-15T09:04:03.062Z,10.15
2023-04-15T09:05:03.044Z,10.21
2023-04-15T09:06:03.052Z,10.26
2023-04-15T09:07:03.077Z,10.27
2023-04-15T09:08:03.116Z,10.29
2023-04-15T09:09:03.341Z,10.22
2023-04-15T09:10:03.121Z,10.11
2023-04-15T09:11:03.121Z,10.06
2023-04-15T09:12:03.125Z,9.94
2023-04-15T09:13:03.139Z,9.86
2023-04-15T09:14:03.149Z,9.92
2023-04-15T09:15:03.157Z,10.00
2023-04-15T09:16:03.173Z,10.10
2023-04-15T09:17:03.212Z,10.23
2023-04-15T09:18:03.206Z,10.39
2023-04-15T09:19:03.284Z,10.57
2023-04-15T09:21:03.280Z,10.98
2023-04-15T09:23:03.252Z,11.14
2023-04-15T09:24:03.382Z,11.14
2023-04-15T09:25:03.264Z,11.16
2023-04-15T09:26:03.289Z,11.13
2023-04-15T09:27:03.284Z,10.99
2023-04-15T09:28:03.307Z,10.89
2023-04-15T09:29:03.297Z,10.87
2023-04-15T09:30:03.318Z,10.93
2023-04-15T09:31:03.357Z,10.94
2023-04-15T09:32:03.343Z,10.97
2023-04-15T09:33:03.350Z,11.08
2023-04-15T09:34:03.576Z,11.16
2023-04-15T09:35:03.356Z,11.16
2023-04-15T09:36:03.372Z,11.13
2023-04-15T09:37:03.537Z,11.07
2023-04-15T09:38:03.392Z,10.96
2023-04-15T09:39:03.411Z,11.01
2023-04-15T09:40:03.416Z,11.09
2023-04-15T09:41:03.427Z,11.07
2023-04-15T09:42:03.428Z,11.09
2023-04-15T09:43:03.443Z,11.10
2023-04-15T09:44:03.612Z,11.08
2023-04-15T09:45:03.459Z,11.08
2023-04-15T09:46:03.488Z,11.09
2023-04-15T09:47:03.485Z,11.10
2023-04-15T09:48:03.520Z,11.12
2023-04-15T09:49:03.504Z,11.18
2023-04-15T09:50:03.634Z,11.28
2023-04-15T09:51:03.527Z,11.32
2023-04-15T09:52:05.969Z,11.39
2023-04-15T09:53:03.551Z,11.42
2023-04-15T09:54:03.710Z,11.48
2023-04-15T09:55:03.575Z,11.52
2023-04-15T09:56:03.589Z,11.58
2023-04-15T09:57:03.605Z,11.70
2023-04-15T09:58:03.615Z,11.84
2023-04-15T09:59:03.633Z,11.89
2023-04-15T10:00:03.633Z,11.94
2023-04-15T10:01:03.680Z,12.02
2023-04-15T10:02:03.671Z,12.10
2023-04-15T10:03:03.769Z,12.14
2023-04-15T10:04:04.017Z,12.07
2023-04-15T10:05:03.689Z,11.96
2023-04-15T10:06:03.713Z,11.91
2023-04-15T10:07:03.724Z,11.88
2023-04-15T10:08:03.720Z,11.82
2023-04-15T10:09:03.730Z,11.76
2023-04-15T10:10:03.757Z,11.74
2023-04-15T10:11:03.751Z,11.71
2023-04-15T10:12:03.758Z,11.71
2023-04-15T10:13:03.772Z,11.77
2023-04-15T10:14:04.054Z,11.86
2023-04-15T10:15:03.789Z,11.99
2023-04-15T10:16:03.820Z,12.12
2023-04-15T10:17:03.815Z,12.14
2023-04-15T10:18:03.859Z,12.14
2023-04-15T10:19:03.844Z,12.19
2023-04-15T10:20:03.849Z,12.16
2023-04-15T10:21:03.857Z,12.17
2023-04-15T10:22:03.867Z,12.16
2023-04-15T10:23:03.875Z,12.18
2023-04-15T10:24:04.022Z,12.14
2023-04-15T10:25:03.902Z,12.09
2023-04-15T10:26:03.914Z,12.05
2023-04-15T10:27:03.927Z,12.00
2023-04-15T10:28:03.941Z,11.98
2023-04-15T10:29:03.950Z,11.96
2023-04-15T10:30:03.963Z,11.94
2023-04-15T10:31:03.988Z,11.90
2023-04-15T10:32:03.988Z,11.90
2023-04-15T10:33:04.003Z,11.88
2023-04-15T10:34:04.405Z,11.95
2023-04-15T10:35:04.020Z,12.01
2023-04-15T10:36:04.021Z,12.08
2023-04-15T10:37:04.046Z,12.13
2023-04-15T10:38:04.058Z,12.17
2023-04-15T10:39:04.058Z,12.13
2023-04-15T10:40:04.071Z,12.11
2023-04-15T10:41:04.082Z,12.08
2023-04-15T10:42:04.101Z,12.06
2023-04-15T10:43:04.105Z,12.07
2023-04-15T10:44:04.478Z,12.15
2023-04-15T10:45:04.125Z,12.29
2023-04-15T10:46:04.193Z,12.46
2023-04-15T10:47:04.157Z,12.63
2023-04-15T10:48:04.223Z,12.79
2023-04-15T10:49:04.178Z,12.94
2023-04-15T10:50:04.193Z,13.10
2023-04-15T10:51:04.208Z,13.17
2023-04-15T10:52:04.216Z,13.22
2023-04-15T10:53:04.224Z,13.23
2023-04-15T10:54:04.331Z,13.22
2023-04-15T10:55:04.241Z,13.25
2023-04-15T10:56:04.271Z,13.27
2023-04-15T10:57:04.275Z,13.28
2023-04-15T10:58:04.280Z,13.28
2023-04-15T10:59:04.292Z,13.27
2023-04-15T11:00:04.294Z,13.33
2023-04-15T11:01:04.306Z,13.37
2023-04-15T11:02:04.401Z,13.42
2023-04-15T11:03:04.371Z,13.46
2023-04-15T11:04:04.572Z,13.60
2023-04-15T11:05:04.364Z,13.63
2023-04-15T11:06:04.366Z,13.70
2023-04-15T11:07:04.379Z,13.72
2023-04-15T11:08:04.506Z,13.66
2023-04-15T11:09:04.396Z,13.55
2023-04-15T11:10:04.411Z,13.49
2023-04-15T11:11:04.417Z,13.53
2023-04-15T11:12:04.422Z,13.65
2023-04-15T11:13:04.437Z,13.75
2023-04-15T11:14:04.507Z,13.75
2023-04-15T11:15:04.461Z,13.77
2023-04-15T11:16:04.497Z,13.74
2023-04-15T11:17:04.485Z,13.69
2023-04-15T11:18:04.502Z,13.69
2023-04-15T11:19:04.511Z,13.60
2023-04-15T11:20:04.532Z,13.60
2023-04-15T11:21:04.531Z,13.45
2023-04-15T11:22:04.545Z,13.40
2023-04-15T11:23:08.531Z,13.38
2023-04-15T11:24:04.722Z,13.33
2023-04-15T11:25:04.579Z,13.25
2023-04-15T11:26:04.592Z,13.30
2023-04-15T11:27:04.600Z,13.31
2023-04-15T11:28:04.605Z,13.33
2023-04-15T11:29:04.760Z,13.33
2023-04-15T11:30:04.632Z,13.37
2023-04-15T11:31:04.643Z,13.41
2023-04-15T11:32:04.665Z,13.50
2023-04-15T11:33:04.681Z,13.63
2023-04-15T11:34:04.762Z,13.72
2023-04-15T11:35:04.707Z,13.84
2023-04-15T11:36:04.709Z,13.91
2023-04-15T11:37:04.720Z,13.93
2023-04-15T11:38:04.720Z,14.02
2023-04-15T11:39:04.736Z,14.10
2023-04-15T11:40:04.748Z,14.16
2023-04-15T11:41:04.758Z,14.10
2023-04-15T11:42:04.780Z,14.14
2023-04-15T11:43:04.775Z,14.18
2023-04-15T11:44:04.942Z,14.28
2023-04-15T11:45:04.807Z,14.31
2023-04-15T11:46:04.877Z,14.23
2023-04-15T11:47:04.830Z,14.17
2023-04-15T11:48:04.840Z,14.19
2023-04-15T11:49:04.867Z,14.19
2023-04-15T11:50:04.875Z,14.18
2023-04-15T11:51:04.888Z,14.16
2023-04-15T11:52:04.897Z,14.16
2023-04-15T11:53:06.962Z,14.08
2023-04-15T11:54:05.191Z,14.03
2023-04-15T11:55:04.949Z,13.78
2023-04-15T11:56:04.947Z,13.56
2023-04-15T11:57:04.971Z,13.46
2023-04-15T11:58:04.976Z,13.35
2023-04-15T11:59:04.985Z,13.20
2023-04-15T12:00:04.989Z,13.04
2023-04-15T12:01:04.996Z,13.01
2023-04-15T12:02:05.092Z,13.05
2023-04-15T12:03:05.127Z,13.11
2023-04-15T12:04:05.456Z,13.15
2023-04-15T12:05:05.110Z,13.12
2023-04-15T12:06:05.073Z,13.11
2023-04-15T12:07:05.078Z,13.12
2023-04-15T12:08:05.084Z,13.16
2023-04-15T12:09:05.103Z,13.23
2023-04-15T12:10:05.128Z,13.29
2023-04-15T12:11:05.146Z,13.37
2023-04-15T12:12:05.149Z,13.46
2023-04-15T12:13:05.153Z,13.58
2023-04-15T12:14:05.494Z,13.70
2023-04-15T12:15:05.181Z,13.80
2023-04-15T12:16:05.215Z,13.86
2023-04-15T12:17:05.230Z,13.77
2023-04-15T12:18:05.257Z,13.66
2023-04-15T12:19:05.244Z,13.49
2023-04-15T12:20:05.248Z,13.39
2023-04-15T12:21:05.260Z,13.32
2023-04-15T12:22:05.281Z,13.26
2023-04-15T12:23:05.285Z,13.23
2023-04-15T12:24:05.452Z,13.31
2023-04-15T12:25:05.311Z,13.34
2023-04-15T12:26:05.334Z,13.48
2023-04-15T12:27:05.348Z,13.59
2023-04-15T12:28:05.347Z,13.60
2023-04-15T12:29:05.368Z,13.62
2023-04-15T12:30:05.377Z,13.58
2023-04-15T12:31:05.427Z,13.60
2023-04-15T12:32:05.424Z,13.55
2023-04-15T12:33:05.447Z,13.45
2023-04-15T12:34:05.504Z,13.42
2023-04-15T12:35:05.424Z,13.47
2023-04-15T12:36:05.435Z,13.58
2023-04-15T12:37:05.453Z,13.73
2023-04-15T12:38:05.459Z,13.90
2023-04-15T12:39:05.472Z,13.96
2023-04-15T12:40:05.485Z,13.95
2023-04-15T12:41:05.492Z,14.02
2023-04-15T12:42:05.518Z,14.09
2023-04-15T12:43:05.519Z,14.15
2023-04-15T12:44:05.699Z,13.99
2023-04-15T12:45:05.545Z,13.96
2023-04-15T12:46:05.572Z,13.86
2023-04-15T12:47:05.581Z,13.86
2023-04-15T12:48:05.587Z,13.88
2023-04-15T12:49:05.594Z,13.88
2023-04-15T12:50:05.599Z,13.98
2023-04-15T12:51:05.820Z,14.10
2023-04-15T12:52:05.631Z,14.07
2023-04-15T12:53:05.640Z,14.09
2023-04-15T12:54:05.867Z,14.03
2023-04-15T12:55:05.667Z,14.06
2023-04-15T12:56:05.671Z,14.05
2023-04-15T12:57:07.368Z,14.10
2023-04-15T12:58:05.705Z,14.12
2023-04-15T12:59:05.705Z,14.09
2023-04-15T13:00:05.718Z,14.17
2023-04-15T13:01:05.740Z,14.12
2023-04-15T13:02:05.841Z,14.03
2023-04-15T13:03:07.146Z,13.91
2023-04-15T13:04:06.007Z,13.90
2023-04-15T13:05:05.776Z,13.98
2023-04-15T13:06:05.800Z,14.01
2023-04-15T13:07:05.807Z,14.01
2023-04-15T13:08:05.816Z,13.99
2023-04-15T13:09:06.114Z,13.89
2023-04-15T13:10:05.844Z,13.85
2023-04-15T13:11:05.852Z,13.90
2023-04-15T13:12:05.864Z,13.99
2023-04-15T13:13:05.876Z,14.03
2023-04-15T13:14:05.995Z,14.09
2023-04-15T13:15:05.946Z,14.01
2023-04-15T13:16:05.953Z,14.00
2023-04-15T13:17:05.928Z,14.00
2023-04-15T13:18:05.939Z,14.01
2023-04-15T13:19:05.949Z,14.03
2023-04-15T13:20:05.969Z,14.08
2023-04-15T13:21:05.980Z,14.04
2023-04-15T13:22:05.991Z,13.90
2023-04-15T13:23:06.009Z,13.85
2023-04-15T13:24:06.144Z,13.83
2023-04-15T13:25:06.035Z,13.78
2023-04-15T13:26:06.038Z,13.84
2023-04-15T13:27:06.053Z,13.97
2023-04-15T13:28:06.076Z,14.10
2023-04-15T13:29:06.093Z,14.21
2023-04-15T13:30:06.180Z,14.32